Latest Weather Observations for Bundaberg

IDQ60801

Issued at 4:32 am EST Sunday 31 May 2015 (issued every 30 minutes, with the page automatically refreshed every 10 minutes)

About weather observations | Map of weather stations | Latest weather observations for QLD | Other Formats
Station Details ID: 039128 Name: BUNDABERG AERO Lat: -24.91 Lon: 152.32 Height: 30.82 m
Data from the previous 72 hours. | See also: Recent months at Bundaberg
Date/Time
EST
Temp
°C
App
Temp
°C
Dew
Point
Rel
Hum
%
Delta-T
°C
Wind Press
QNH
hPa
Press
MSL
hPa
Rain
since 9 am
mm
Dir
 
Spd
km/h
Gust
km/h
Spd
kts
Gust
kts
31/04:00am 15.6 17.3 15.1 97 0.3 CALM 0 0 0 0 1018.0 1017.9 0.2
31/03:30am 16.0 16.7 15.7 98 0.2 WSW 6 7 3 4 1018.1 1018.0 0.2
31/03:00am 16.3 17.2 16.0 98 0.2 W 6 6 3 3 1018.2 1018.1 0.0
31/02:30am 16.3 17.0 16.0 98 0.2 W 7 9 4 5 1018.2 1018.1 0.0
31/02:00am 16.6 17.0 16.3 98 0.2 W 9 9 5 5 1018.4 1018.3 0.0
31/01:30am 16.2 17.3 15.7 97 0.3 W 4 9 2 5 1018.7 1018.6 0.0
31/01:00am 16.1 17.9 15.6 97 0.3 CALM 0 0 0 0 1018.9 1018.8 0.0
31/12:30am 15.8 17.5 15.3 97 0.3 CALM 0 6 0 3 1019.2 1019.1 0.0
 
Date/Time
EST
Temp
°C
App
Temp
°C
Dew
Point
Rel
Hum
%
Delta-T
°C
Wind Press
QNH
hPa
Press
MSL
hPa
Rain
since 9 am
mm
Dir
 
Spd
km/h
Gust
km/h
Spd
kts
Gust
kts
30/11:30pm 16.3 18.2 15.7 96 0.4 CALM 0 0 0 0 1019.6 1019.5 0.0
30/11:00pm 16.5 18.4 15.7 95 0.5 CALM 0 0 0 0 1019.8 1019.7 0.0
30/10:35pm 16.5 18.3 15.4 93 0.6 CALM 0 0 0 0 1020.0 1019.9 0.0
30/10:31pm 16.3 18.0 15.2 93 0.6 CALM 0 0 0 0 1020.0 1019.9 0.0
30/10:30pm 16.4 18.1 15.3 93 0.6 CALM 0 0 0 0 1020.0 1019.9 0.0
30/10:28pm 16.5 18.3 15.5 94 0.6 CALM 0 0 0 0 1020.0 1019.9 0.0
30/10:14pm 17.1 19.1 16.1 94 0.6 CALM 0 0 0 0 1020.1 1020.0 0.0
30/10:00pm 17.2 19.4 16.4 95 0.5 CALM 0 0 0 0 1020.0 1019.9 0.0
30/09:30pm 17.9 20.3 17.1 95 0.5 CALM 0 0 0 0 1020.0 1019.9 0.0
30/09:26pm 18.1 20.7 17.5 96 0.4 CALM 0 0 0 0 1020.0 1019.9 0.0
30/09:00pm 17.9 20.3 16.9 94 0.6 CALM 0 0 0 0 1020.2 1020.1 0.0
30/08:30pm 17.6 18.0 16.3 92 0.8 NE 9 11 5 6 1020.1 1020.0 0.0
30/08:00pm 18.5 21.0 17.2 92 0.8 CALM 0 0 0 0 1020.1 1020.0 0.0
30/07:30pm 19.1 21.7 17.4 90 1.0 CALM 0 4 0 2 1020.1 1020.0 0.0
30/07:00pm 20.1 21.8 18.4 90 1.1 NNE 7 9 4 5 1020.0 1019.9 0.0
30/06:30pm 20.2 21.4 18.3 89 1.2 NNE 9 11 5 6 1019.9 1019.8 0.0
30/06:00pm 20.6 21.8 18.2 86 1.5 NNE 9 13 5 7 1019.7 1019.6 0.0
30/05:30pm 21.3 22.0 17.9 81 2.1 NNE 11 15 6 8 1019.3 1019.2 0.0
30/05:00pm 22.2 22.4 17.6 75 2.8 NNE 13 17 7 9 1019.0 1018.9 0.0
30/04:30pm 23.4 23.1 17.4 69 3.7 NNE 15 19 8 10 1018.9 1018.8 0.0
30/04:00pm 24.0 23.2 17.0 65 4.3 NNE 17 20 9 11 1018.7 1018.6 0.0
30/03:30pm 24.6 23.7 16.8 62 4.8 NNE 17 20 9 11 1018.7 1018.6 0.0
30/03:00pm 25.5 24.8 17.4 61 5.1 NNE 17 24 9 13 1018.5 1018.4 0.0
30/02:30pm 26.2 25.8 18.1 61 5.1 NNE 17 26 9 14 1018.6 1018.5 0.0
30/02:00pm 25.9 25.5 18.1 62 4.9 NNE 17 20 9 11 1018.7 1018.6 0.0
30/01:30pm 27.0 27.3 18.0 58 5.7 NNW 13 19 7 10 1019.1 1019.0 0.0
30/01:00pm 26.0 26.7 17.1 58 5.5 NNE 9 15 5 8 1019.6 1019.5 0.0
30/12:30pm 25.2 26.0 16.3 57 5.5 N 7 15 4 8 1020.1 1020.0 0.0
30/12:00pm 25.7 26.4 17.1 59 5.3 WNW 9 13 5 7 1020.8 1020.7 0.0
30/11:30am 25.1 26.2 17.0 60 5.0 NW 7 13 4 7 1021.5 1021.4 0.0
30/11:00am 24.8 27.0 18.3 67 4.1 SW 4 9 2 5 1021.9 1021.8 0.0
30/09:30am 21.7 25.0 19.1 85 1.6 CALM 0 0 0 0 1023.2 1023.1 0.0
30/09:00am 20.3 22.0 18.6 90 1.1 SW 7 9 4 5 1023.3 1023.2 0.0
30/08:00am 18.0 18.9 17.5 97 0.3 SW 9 13 5 7 1023.4 1023.3 0.0
30/07:30am 17.1 17.7 16.8 98 0.2 SW 9 13 5 7 1023.0 1022.9 0.0
30/07:00am 16.4 17.1 16.2 99 0.1 SSW 7 11 4 6 1022.7 1022.6 0.0
30/06:37am 15.8 15.5 15.5 98 0.2 SW 11 13 6 7 1022.6 1022.5 0.0
30/06:36am 15.8 15.5 15.5 98 0.2 SW 11 13 6 7 1022.6 1022.5 0.0
30/06:30am 15.7 15.4 15.4 98 0.2 SW 11 13 6 7 1022.6 1022.5 0.0
30/06:22am 15.6 15.6 15.1 97 0.3 SW 9 13 5 7 1022.6 1022.5 0.0
30/06:07am 14.1 15.1 13.3 95 0.4 CALM 0 0 0 0 1022.3 1022.2 0.0
30/06:04am 14.2 15.3 13.4 95 0.4 CALM 0 0 0 0 1022.3 1022.2 0.0
30/05:48am 13.8 14.7 12.9 94 0.5 CALM 0 0 0 0 1022.2 1022.1 0.0
30/05:43am 14.2 15.3 13.4 95 0.4 CALM 0 0 0 0 1022.1 1022.0 0.0
30/05:30am 14.6 15.9 14.0 96 0.3 CALM 0 0 0 0 1021.9 1021.8 0.0
30/05:28am 14.7 16.0 14.1 96 0.3 CALM 0 0 0 0 1021.9 1021.8 0.0
30/05:24am 14.6 15.9 14.0 96 0.3 CALM 0 0 0 0 1021.8 1021.7 0.0
30/05:14am 14.9 16.3 14.3 96 0.3 CALM 0 0 0 0 1021.7 1021.6 0.0
30/05:08am 14.8 16.1 14.2 96 0.3 CALM 0 0 0 0 1021.7 1021.6 0.0
30/05:05am 15.1 16.6 14.6 97 0.3 CALM 0 0 0 0 1021.7 1021.6 0.0
30/05:00am 15.3 16.9 14.8 97 0.3 CALM 0 0 0 0 1021.6 1021.5 0.0
30/04:51am 15.2 16.7 14.7 97 0.3 CALM 0 0 0 0 1021.6 1021.5 0.0
30/04:41am 15.3 16.9 14.8 97 0.3 CALM 0 0 0 0 1021.6 1021.5 0.0
30/04:36am 15.5 16.7 15.0 97 0.3 SSW 2 7 1 4 1021.5 1021.4 0.0
30/04:30am 15.4 15.9 14.9 97 0.3 SSW 6 7 3 4 1021.5 1021.4 0.0
30/04:04am 14.6 15.8 13.8 95 0.4 CALM 0 4 0 2 1021.4 1021.3 0.0
30/04:00am 14.4 15.5 13.6 95 0.4 CALM 0 0 0 0 1021.3 1021.2 0.0
30/03:48am 14.6 15.8 13.8 95 0.4 CALM 0 0 0 0 1021.3 1021.2 0.0
30/03:41am 14.5 15.7 13.7 95 0.4 CALM 0 0 0 0 1021.4 1021.3 0.0
30/03:33am 14.9 16.3 14.3 96 0.3 CALM 0 0 0 0 1021.4 1021.3 0.0
30/03:30am 14.9 16.3 14.3 96 0.3 CALM 0 6 0 3 1021.5 1021.4 0.0
30/03:00am 14.5 14.5 13.5 94 0.6 SSW 6 7 3 4 1021.5 1021.4 0.0
30/02:33am 15.0 15.3 14.4 96 0.3 SSW 6 6 3 3 1021.6 1021.5 0.0
30/02:30am 15.3 15.7 14.7 96 0.3 SSW 6 7 3 4 1021.6 1021.5 0.0
30/02:15am 15.2 16.2 14.4 95 0.5 SSW 2 9 1 5 1021.8 1021.7 0.0
30/02:05am 15.2 16.6 14.4 95 0.5 CALM 0 0 0 0 1021.7 1021.6 0.0
30/02:00am 14.8 16.1 14.0 95 0.4 CALM 0 0 0 0 1021.8 1021.7 0.0
30/01:59am 14.8 16.1 14.0 95 0.5 CALM 0 0 0 0 1021.8 1021.7 0.0
30/01:52am 14.9 16.2 14.1 95 0.5 CALM 0 0 0 0 1021.8 1021.7 0.0
30/01:30am 15.2 16.6 14.4 95 0.5 CALM 0 0 0 0 1022.1 1022.0 0.0
30/01:00am 15.4 16.9 14.6 95 0.5 CALM 0 0 0 0 1022.4 1022.3 0.0
30/12:30am 15.5 17.0 14.7 95 0.5 CALM 0 0 0 0 1022.7 1022.6 0.0
30/12:03am 15.5 15.9 14.7 95 0.5 S 6 7 3 4 1022.8 1022.7 0.0
30/12:02am 15.5 15.9 14.7 95 0.5 S 6 7 3 4 1022.8 1022.7 0.0
30/12:00am 15.5 15.9 14.7 95 0.5 S 6 7 3 4 1022.8 1022.7 0.0
 
Date/Time
EST
Temp
°C
App
Temp
°C
Dew
Point
Rel
Hum
%
Delta-T
°C
Wind Press
QNH
hPa
Press
MSL
hPa
Rain
since 9 am
mm
Dir
 
Spd
km/h
Gust
km/h
Spd
kts
Gust
kts
29/11:59pm 15.6 16.0 14.8 95 0.5 S 6 7 3 4 1022.8 1022.7 0.0
29/11:57pm 15.6 16.0 14.8 95 0.5 S 6 7 3 4 1022.8 1022.7 0.0
29/11:56pm 15.5 15.8 14.5 94 0.6 S 6 7 3 4 1022.8 1022.7 0.0
29/11:55pm 15.6 15.9 14.6 94 0.6 S 6 7 3 4 1022.8 1022.7 0.0
29/11:30pm 15.7 17.3 14.9 95 0.5 CALM 0 0 0 0 1023.0 1022.9 0.0
29/11:20pm 15.8 17.4 15.0 95 0.5 CALM 0 0 0 0 1023.0 1022.9 0.0
29/11:19pm 15.9 17.6 15.1 95 0.5 CALM 0 0 0 0 1023.0 1022.9 0.0
29/11:18pm 16.0 17.7 15.2 95 0.5 CALM 0 0 0 0 1023.0 1022.9 0.0
29/11:12pm 15.9 17.6 15.1 95 0.5 CALM 0 0 0 0 1023.0 1022.9 0.0
29/11:00pm 15.9 17.5 14.9 94 0.6 CALM 0 0 0 0 1023.2 1023.1 0.0
29/10:49pm 15.6 17.0 14.5 93 0.6 CALM 0 0 0 0 1023.2 1023.1 0.0
29/10:30pm 16.0 17.6 15.0 94 0.6 CALM 0 0 0 0 1023.3 1023.2 0.0
29/10:00pm 16.7 18.6 15.7 94 0.6 CALM 0 0 0 0 1023.2 1023.1 0.0
29/09:51pm 16.9 18.9 15.9 94 0.6 CALM 0 0 0 0 1023.2 1023.1 0.0
29/09:36pm 17.0 19.0 16.0 94 0.6 CALM 0 0 0 0 1023.1 1023.0 0.0
29/09:32pm 16.9 18.9 15.9 94 0.6 CALM 0 0 0 0 1023.2 1023.1 0.0
29/09:30pm 16.8 18.7 15.8 94 0.6 CALM 0 0 0 0 1023.2 1023.1 0.0
29/09:26pm 16.9 18.9 15.9 94 0.6 CALM 0 0 0 0 1023.2 1023.1 0.0
29/09:00pm 16.8 18.2 15.5 92 0.8 ESE 2 6 1 3 1023.2 1023.1 0.0
29/08:30pm 17.2 17.9 15.7 91 0.9 ESE 6 7 3 4 1023.3 1023.2 0.0
29/08:00pm 18.3 19.4 17.0 92 0.8 ESE 7 9 4 5 1023.2 1023.1 0.0
29/07:30pm 18.2 19.2 16.4 89 1.1 ESE 6 6 3 3 1023.1 1023.0 0.0
29/07:00pm 18.5 19.2 16.1 86 1.4 ENE 7 9 4 5 1022.8 1022.7 0.0
29/06:30pm 19.0 19.8 16.4 85 1.6 E 7 9 4 5 1022.4 1022.3 0.0
29/06:00pm 20.1 21.0 16.5 80 2.2 ENE 7 9 4 5 1022.2 1022.1 0.0
29/05:30pm 21.0 21.5 16.6 76 2.7 NE 9 13 5 7 1022.0 1021.9 0.0
29/05:00pm 22.2 22.6 16.2 69 3.6 ENE 9 11 5 6 1021.8 1021.7 0.0
29/04:30pm 23.5 23.2 16.5 65 4.3 ENE 13 17 7 9 1021.6 1021.5 0.0
29/04:00pm 24.4 24.2 16.6 61 4.8 NE 13 19 7 10 1021.3 1021.2 0.0
29/03:30pm 25.0 24.8 16.7 60 5.1 NE 13 19 7 10 1021.2 1021.1 0.0
29/03:00pm 24.6 24.0 16.6 61 4.9 NNE 15 20 8 11 1021.1 1021.0 0.0
29/02:30pm 24.8 24.5 16.5 60 5.1 ENE 13 19 7 10 1021.2 1021.1 0.0
29/02:00pm 26.0 26.1 16.5 55 5.8 NNE 11 19 6 10 1021.4 1021.3 0.0
29/01:30pm 25.9 26.4 16.5 56 5.8 N 9 15 5 8 1021.4 1021.3 0.0
29/01:00pm 24.2 24.6 16.2 61 4.9 E 9 13 5 7 1021.7 1021.6 0.0
29/12:30pm 24.5 25.0 16.5 61 4.9 ESE 9 15 5 8 1022.1 1022.0 0.0
29/12:00pm 25.3 26.8 17.5 62 4.9 E 6 15 3 8 1022.5 1022.4 0.0
29/11:30am 24.0 24.9 16.5 63 4.6 NNE 7 17 4 9 1022.9 1022.8 0.0
29/11:00am 23.6 24.3 17.1 67 4.0 ENE 9 17 5 9 1023.4 1023.3 0.0
29/10:30am 23.3 24.1 17.3 69 3.7 ESE 9 15 5 8 1023.8 1023.7 0.0
29/10:00am 22.8 24.0 18.3 76 2.8 S 9 13 5 7 1024.2 1024.1 0.0
29/09:30am 21.5 22.6 17.9 80 2.2 S 9 13 5 7 1024.6 1024.5 0.0
29/09:00am 20.2 21.2 17.8 86 1.5 S 9 13 5 7 1024.4 1024.3 0.2
29/08:30am 19.0 19.8 17.3 90 1.0 SSE 9 13 5 7 1024.1 1024.0 0.2
29/08:00am 17.5 17.6 16.4 93 0.7 S 11 13 6 7 1024.1 1024.0 0.2
29/07:30am 16.5 15.9 15.7 95 0.5 S 13 17 7 9 1023.9 1023.8 0.2
29/07:00am 15.8 15.0 15.2 96 0.3 S 13 17 7 9 1023.7 1023.6 0.2
29/06:53am 15.7 14.9 15.2 97 0.3 S 13 15 7 8 1023.6 1023.5 0.2
29/06:43am 15.6 14.8 15.1 97 0.3 S 13 15 7 8 1023.6 1023.5 0.2
29/06:37am 15.5 14.7 15.0 97 0.3 S 13 17 7 9 1023.5 1023.4 0.2
29/06:30am 15.6 14.8 15.1 97 0.3 S 13 17 7 9 1023.4 1023.3 0.2
29/06:00am 15.6 14.8 15.1 97 0.3 S 13 15 7 8 1023.1 1023.0 0.2
29/05:30am 15.7 14.9 15.2 97 0.3 S 13 15 7 8 1022.7 1022.6 0.2
29/05:00am 15.6 15.2 15.1 97 0.3 S 11 15 6 8 1022.5 1022.4 0.2
29/04:30am 15.7 14.9 15.2 97 0.3 S 13 15 7 8 1022.4 1022.3 0.2
29/04:04am 15.9 15.2 15.4 97 0.3 S 13 17 7 9 1022.4 1022.3 0.2
29/04:00am 15.9 15.2 15.4 97 0.3 S 13 17 7 9 1022.4 1022.3 0.2
29/03:30am 15.8 15.0 15.2 96 0.3 S 13 15 7 8 1022.4 1022.3 0.0
29/03:00am 15.7 15.7 15.1 96 0.3 S 9 17 5 9 1022.6 1022.5 0.0
29/02:30am 16.0 15.7 15.4 96 0.3 S 11 15 6 8 1022.7 1022.6 0.0
29/02:00am 15.8 15.4 15.2 96 0.3 S 11 15 6 8 1022.8 1022.7 0.0
29/01:30am 15.8 15.3 15.0 95 0.5 S 11 13 6 7 1022.8 1022.7 0.0
29/01:00am 16.2 15.5 15.4 95 0.5 S 13 17 7 9 1023.1 1023.0 0.0
29/12:30am 16.2 16.3 15.4 95 0.5 S 9 11 5 6 1023.2 1023.1 0.0
29/12:00am 16.5 16.7 15.7 95 0.5 S 9 13 5 7 1023.3 1023.2 0.0
 
Date/Time
EST
Temp
°C
App
Temp
°C
Dew
Point
Rel
Hum
%
Delta-T
°C
Wind Press
QNH
hPa
Press
MSL
hPa
Rain
since 9 am
mm
Dir
 
Spd
km/h
Gust
km/h
Spd
kts
Gust
kts
28/11:30pm 16.2 16.2 15.1 93 0.6 S 9 13 5 7 1023.3 1023.2 0.0
28/11:00pm 16.8 16.6 15.7 93 0.6 S 11 15 6 8 1023.4 1023.3 0.0
28/10:30pm 16.8 16.6 15.7 93 0.6 S 11 15 6 8 1023.7 1023.6 0.0
28/10:00pm 17.1 16.9 15.8 92 0.8 SSE 11 15 6 8 1023.6 1023.5 0.0
28/09:30pm 17.1 16.9 15.8 92 0.8 S 11 13 6 7 1023.7 1023.6 0.0
28/09:00pm 17.3 17.6 16.0 92 0.8 SSE 9 13 5 7 1023.7 1023.6 0.0
28/08:30pm 17.7 18.0 16.0 90 1.0 SSE 9 11 5 6 1023.7 1023.6 0.0
28/08:00pm 18.0 18.4 16.2 89 1.1 SSE 9 11 5 6 1023.6 1023.5 0.0
28/07:30pm 18.3 18.7 16.3 88 1.2 SSE 9 11 5 6 1023.4 1023.3 0.0
28/07:00pm 18.5 19.4 16.7 89 1.1 SE 7 7 4 4 1022.9 1022.8 0.0
28/06:30pm 18.8 19.8 16.8 88 1.2 SE 7 9 4 5 1022.5 1022.4 0.0
28/06:00pm 19.4 19.6 16.8 85 1.6 E 11 13 6 7 1022.0 1021.9 0.0
28/05:30pm 20.2 20.0 16.8 81 2.1 E 13 17 7 9 1021.8 1021.7 0.0
28/05:00pm 21.3 20.9 16.3 73 3.0 E 13 19 7 10 1021.6 1021.5 0.0
28/04:30pm 22.5 21.3 16.1 67 3.9 E 17 22 9 12 1021.4 1021.3 0.0
28/04:00pm 23.3 21.7 15.1 60 4.9 E 17 22 9 12 1021.4 1021.3 0.0
28/03:30pm 23.9 22.0 14.3 55 5.7 E 17 22 9 12 1021.3 1021.2 0.0
28/03:00pm 24.4 22.7 13.6 51 6.3 E 15 20 8 11 1021.1 1021.0 0.0
28/02:30pm 24.8 23.0 13.4 49 6.7 E 15 19 8 10 1021.0 1020.9 0.0
28/02:00pm 24.8 24.0 14.0 51 6.4 E 11 19 6 10 1021.3 1021.2 0.0
28/01:30pm 25.1 23.5 13.9 49 6.6 E 15 20 8 11 1021.6 1021.5 0.0
28/01:00pm 24.8 22.7 13.7 50 6.5 ENE 17 26 9 14 1021.6 1021.5 0.0
28/12:30pm 24.9 23.7 15.0 54 5.9 E 15 24 8 13 1022.1 1022.0 0.0
28/12:00pm 24.6 23.3 14.7 54 5.9 E 15 22 8 12 1022.6 1022.5 0.0
28/11:30am 23.6 23.4 14.6 57 5.3 SE 9 17 5 9 1023.1 1023.0 0.0
28/11:00am 24.4 24.4 17.1 63 4.5 E 13 20 7 11 1023.3 1023.2 0.0
28/10:30am 23.3 23.6 17.1 68 3.8 SE 11 20 6 11 1023.6 1023.5 0.0
28/10:00am 22.4 22.7 17.1 72 3.2 SSE 11 19 6 10 1024.0 1023.9 0.0
28/09:30am 21.3 21.4 17.5 79 2.3 S 13 19 7 10 1023.8 1023.7 0.0
28/09:00am 19.6 19.4 16.8 84 1.7 SSE 13 20 7 11 1023.7 1023.6 0.0
28/08:30am 18.4 18.1 16.4 88 1.2 SSE 13 19 7 10 1023.8 1023.7 0.0
28/08:00am 17.1 16.6 15.8 92 0.8 S 13 17 7 9 1023.5 1023.4 0.0
28/07:30am 16.2 15.4 15.2 94 0.6 S 13 17 7 9 1023.4 1023.3 0.0
28/07:00am 15.4 14.9 14.8 96 0.3 S 11 15 6 8 1023.2 1023.1 0.0
28/06:30am 15.0 14.3 14.4 96 0.3 S 11 13 6 7 1022.6 1022.5 0.0
28/06:00am 15.0 14.3 14.4 96 0.3 S 11 15 6 8 1022.4 1022.3 0.0
28/05:30am 15.2 14.2 14.6 96 0.3 S 13 17 7 9 1022.2 1022.1 0.0
28/05:00am 15.0 13.6 14.4 96 0.3 S 15 19 8 10 1022.0 1021.9 0.0

Other Formats:

Comma delimited format used in spreadsheet applications
http://www.bom.gov.au/fwo/IDQ60801/IDQ60801.94387.axf

JavaScript Object Notation format (JSON) in row-major order
http://www.bom.gov.au/fwo/IDQ60801/IDQ60801.94387.json